createdAt,value
2018-07-04T00:00:12.555Z,100528.64
2018-07-04T00:01:27.356Z,100534.20
2018-07-04T00:02:42.216Z,100535.37
2018-07-04T00:03:56.882Z,100535.59
2018-07-04T00:05:11.593Z,100535.37
2018-07-04T00:06:26.306Z,100535.97
2018-07-04T00:07:41.081Z,100537.36
2018-07-04T00:08:55.815Z,100535.16
2018-07-04T00:10:10.635Z,100537.36
2018-07-04T00:11:25.551Z,100536.77
2018-07-04T00:12:40.374Z,100535.16
2018-07-04T00:13:55.320Z,100536.34
2018-07-04T00:15:10.060Z,100532.97
2018-07-04T00:16:24.890Z,100537.73
2018-07-04T00:17:40.060Z,100539.72
2018-07-04T00:18:54.716Z,100540.30
2018-07-04T00:20:09.502Z,100536.93
2018-07-04T00:21:24.316Z,100533.94
2018-07-04T00:22:38.927Z,100540.89
2018-07-04T00:23:53.620Z,100544.27
2018-07-04T00:25:08.376Z,100537.52
2018-07-04T00:26:23.122Z,100536.72
2018-07-04T00:27:37.968Z,100532.76
2018-07-04T00:28:52.698Z,100534.95
2018-07-04T00:30:07.421Z,100531.58
2018-07-04T00:31:22.151Z,100533.77
2018-07-04T00:32:36.869Z,100530.19
2018-07-04T00:33:51.644Z,100527.41
2018-07-04T00:35:06.317Z,100524.63
2018-07-04T00:36:21.077Z,100525.80
2018-07-04T00:37:35.724Z,100524.41
2018-07-04T00:38:50.622Z,100527.78
2018-07-04T00:40:05.256Z,100523.61
2018-07-04T00:41:20.028Z,100521.42
2018-07-04T00:42:34.780Z,100524.20
2018-07-04T00:43:49.523Z,100519.44
2018-07-04T00:45:04.336Z,100518.05
2018-07-04T00:46:19.084Z,100510.08
2018-07-04T00:47:33.824Z,100515.64
2018-07-04T00:48:48.651Z,100511.47
2018-07-04T00:50:03.522Z,100514.25
2018-07-04T00:51:18.112Z,100514.25
2018-07-04T00:52:32.787Z,100512.64
2018-07-04T00:53:47.698Z,100508.47
2018-07-04T00:55:02.299Z,100513.23
2018-07-04T00:56:17.143Z,100510.45
2018-07-04T00:57:31.774Z,100509.66
2018-07-04T00:58:46.666Z,100509.06
2018-07-04T01:00:01.454Z,100512.44
2018-07-04T01:01:16.306Z,100518.21
2018-07-04T01:02:31.103Z,100516.61
2018-07-04T01:03:45.920Z,100511.05
2018-07-04T01:05:00.717Z,100512.44
2018-07-04T01:06:15.365Z,100513.02
2018-07-04T01:07:30.207Z,100505.27
2018-07-04T01:08:44.946Z,100509.66
2018-07-04T01:09:59.744Z,100505.10
2018-07-04T01:11:14.470Z,100505.31
2018-07-04T01:12:29.142Z,100507.51
2018-07-04T01:13:43.978Z,100500.77
2018-07-04T01:14:58.724Z,100502.95
2018-07-04T01:16:13.420Z,100499.38
2018-07-04T01:17:28.185Z,100504.34
2018-07-04T01:18:43.859Z,100502.16
2018-07-04T01:19:58.665Z,100497.98
2018-07-04T01:21:14.800Z,100504.94
2018-07-04T01:22:29.539Z,100502.95
2018-07-04T01:23:44.367Z,100498.78
2018-07-04T01:24:59.220Z,100504.94
2018-07-04T01:26:14.044Z,100502.95
2018-07-04T01:27:28.826Z,100502.75
2018-07-04T01:28:49.082Z,100499.97
2018-07-04T01:30:03.805Z,100495.20
2018-07-04T01:31:18.545Z,100493.81
2018-07-04T01:32:33.262Z,100492.42
2018-07-04T01:33:47.953Z,100491.62
2018-07-04T01:35:02.648Z,100496.59
2018-07-04T01:36:17.281Z,100495.41
2018-07-04T01:37:32.065Z,100489.05
2018-07-04T01:38:46.825Z,100486.05
2018-07-04T01:40:01.638Z,100495.20
2018-07-04T01:41:16.414Z,100496.80
2018-07-04T01:42:31.152Z,100485.67
2018-07-04T01:43:45.929Z,100489.84
2018-07-04T01:45:00.514Z,100487.28
2018-07-04T01:46:15.300Z,100486.69
2018-07-04T01:47:30.104Z,100486.48
2018-07-04T01:48:44.875Z,100487.28
2018-07-04T01:49:59.651Z,100485.89
2018-07-04T01:51:14.524Z,100483.11
2018-07-04T01:52:29.452Z,100478.34
2018-07-04T01:53:44.294Z,100477.16
2018-07-04T01:54:59.112Z,100476.16
2018-07-04T01:56:13.829Z,100479.95
2018-07-04T01:57:28.551Z,100474.97
2018-07-04T01:58:43.350Z,100481.34
2018-07-04T01:59:58.252Z,100477.75
2018-07-04T02:01:13.166Z,100477.16
2018-07-04T02:02:27.870Z,100476.36
2018-07-04T02:03:42.604Z,100480.53
2018-07-04T02:04:57.349Z,100477.75
2018-07-04T02:06:12.160Z,100477.75
2018-07-04T02:07:26.983Z,100476.74
2018-07-04T02:08:41.807Z,100476.16
2018-07-04T02:09:56.753Z,100483.91
2018-07-04T02:11:11.642Z,100483.11
2018-07-04T02:12:26.408Z,100482.30
2018-07-04T02:13:41.112Z,100484.50
2018-07-04T02:14:55.918Z,100485.09
2018-07-04T02:16:10.651Z,100488.67
2018-07-04T02:17:25.398Z,100482.30
2018-07-04T02:18:40.212Z,100485.30
2018-07-04T02:19:55.023Z,100487.06
2018-07-04T02:21:09.771Z,100488.45
2018-07-04T02:22:24.557Z,100485.89
2018-07-04T02:23:39.344Z,100486.48
2018-07-04T02:24:54.154Z,100483.70
2018-07-04T02:26:08.768Z,100487.28
2018-07-04T02:27:23.522Z,100482.30
2018-07-04T02:28:38.250Z,100487.28
2018-07-04T02:29:52.918Z,100482.30
2018-07-04T02:31:07.630Z,100486.69
2018-07-04T02:32:22.353Z,100481.72
2018-07-04T02:33:37.039Z,100481.50
2018-07-04T02:34:55.970Z,100480.33
2018-07-04T02:36:10.537Z,100478.94
2018-07-04T02:37:25.209Z,100477.33
2018-07-04T02:38:39.816Z,100476.53
2018-07-04T02:39:54.602Z,100478.13
2018-07-04T02:41:09.399Z,100481.50
2018-07-04T02:42:24.140Z,100477.33
2018-07-04T02:43:38.972Z,100477.33
2018-07-04T02:44:53.843Z,100475.77
2018-07-04T02:46:08.568Z,100472.19
2018-07-04T02:47:27.935Z,100474.97
2018-07-04T02:48:42.787Z,100477.75
2018-07-04T02:49:57.533Z,100479.14
2018-07-04T02:51:12.272Z,100472.99
2018-07-04T02:52:27.127Z,100474.97
2018-07-04T02:53:41.830Z,100470.21
2018-07-04T02:54:56.712Z,100470.80
2018-07-04T02:56:11.549Z,100466.41
2018-07-04T02:57:26.304Z,100465.83
2018-07-04T02:58:41.051Z,100465.02
2018-07-04T02:59:55.833Z,100466.20
2018-07-04T03:01:11.104Z,100469.78
2018-07-04T03:02:26.052Z,100466.20
2018-07-04T03:03:40.712Z,100467.38
2018-07-04T03:04:56.055Z,100471.77
2018-07-04T03:06:11.204Z,100466.80
2018-07-04T03:07:25.811Z,100467.38
2018-07-04T03:08:40.616Z,100464.59
2018-07-04T03:09:55.354Z,100467.17
2018-07-04T03:11:10.095Z,100470.16
2018-07-04T03:12:24.827Z,100472.73
2018-07-04T03:13:39.612Z,100472.73
2018-07-04T03:14:54.358Z,100464.77
2018-07-04T03:16:09.024Z,100470.12
2018-07-04T03:17:23.614Z,100462.58
2018-07-04T03:18:38.432Z,100469.53
2018-07-04T03:19:53.141Z,100472.09
2018-07-04T03:21:07.969Z,100475.68
2018-07-04T03:22:22.710Z,100475.68
2018-07-04T03:23:37.372Z,100474.87
2018-07-04T03:24:52.050Z,100472.09
2018-07-04T03:26:06.893Z,100469.91
2018-07-04T03:27:21.585Z,100477.66
2018-07-04T03:28:36.370Z,100474.29
2018-07-04T03:29:51.209Z,100468.73
2018-07-04T03:31:05.787Z,100471.72
2018-07-04T03:32:20.445Z,100470.92
2018-07-04T03:33:35.371Z,100468.73
2018-07-04T03:34:50.051Z,100468.73
2018-07-04T03:36:04.836Z,100466.53
2018-07-04T03:37:19.598Z,100466.53
2018-07-04T03:38:34.299Z,100464.94
2018-07-04T03:39:49.126Z,100463.55
2018-07-04T03:41:03.861Z,100457.39
2018-07-04T03:42:18.502Z,100464.13
2018-07-04T03:43:33.422Z,100462.16
2018-07-04T03:44:48.206Z,100462.16
2018-07-04T03:46:03.079Z,100457.98
2018-07-04T03:47:17.816Z,100462.16
2018-07-04T03:48:32.640Z,100463.75
2018-07-04T03:49:47.454Z,100460.77
2018-07-04T03:51:02.133Z,100461.14
2018-07-04T03:52:16.850Z,100460.30
2018-07-04T03:53:31.916Z,100462.07
2018-07-04T03:54:46.773Z,100462.66
2018-07-04T03:56:01.387Z,100466.03
2018-07-04T03:57:16.257Z,100469.61
2018-07-04T03:58:31.032Z,100466.41
2018-07-04T03:59:45.840Z,100464.80
2018-07-04T04:01:00.632Z,100465.40
2018-07-04T04:02:15.492Z,100468.77
2018-07-04T04:03:30.189Z,100467.37
2018-07-04T04:04:45.089Z,100466.58
2018-07-04T04:06:00.514Z,100465.77
2018-07-04T04:07:15.257Z,100464.17
2018-07-04T04:08:30.037Z,100462.98
2018-07-04T04:09:44.822Z,100467.75
2018-07-04T04:10:59.524Z,100465.77
2018-07-04T04:12:14.321Z,100469.14
2018-07-04T04:13:28.915Z,100468.34
2018-07-04T04:14:43.708Z,100471.13
2018-07-04T04:15:58.628Z,100466.36
2018-07-04T04:17:13.387Z,100466.73
2018-07-04T04:18:28.124Z,100466.15
2018-07-04T04:19:42.965Z,100470.11
2018-07-04T04:20:57.668Z,100463.16
2018-07-04T04:22:13.120Z,100467.92
2018-07-04T04:23:27.737Z,100468.13
2018-07-04T04:24:42.700Z,100466.95
2018-07-04T04:25:57.576Z,100464.17
2018-07-04T04:27:12.271Z,100469.52
2018-07-04T04:28:27.045Z,100464.76
2018-07-04T04:29:41.929Z,100460.96
2018-07-04T04:30:56.752Z,100464.55
2018-07-04T04:32:11.632Z,100470.32
2018-07-04T04:33:26.360Z,100472.30
2018-07-04T04:34:41.198Z,100472.52
2018-07-04T04:35:55.989Z,100468.34
2018-07-04T04:37:10.770Z,100467.54
2018-07-04T04:38:25.627Z,100473.31
2018-07-04T04:39:40.370Z,100477.48
2018-07-04T04:40:55.208Z,100470.91
2018-07-04T04:42:09.942Z,100468.93
2018-07-04T04:43:24.734Z,100475.08
2018-07-04T04:44:39.484Z,100481.45
2018-07-04T04:45:54.282Z,100480.64
2018-07-04T04:47:09.072Z,100483.42
2018-07-04T04:48:23.815Z,100482.84
2018-07-04T04:49:38.375Z,100486.20
2018-07-04T04:50:53.094Z,100482.25
2018-07-04T04:52:07.816Z,100487.59
2018-07-04T04:53:22.448Z,100488.02
2018-07-04T04:54:37.120Z,100489.20
2018-07-04T04:55:51.869Z,100487.44
2018-07-04T04:57:06.504Z,100488.23
2018-07-04T04:58:21.243Z,100485.45
2018-07-04T04:59:35.946Z,100488.02
2018-07-04T05:00:50.848Z,100488.02
2018-07-04T05:02:05.723Z,100490.80
2018-07-04T05:03:20.305Z,100489.04
2018-07-04T05:04:34.996Z,100484.06
2018-07-04T05:05:49.606Z,100484.06
2018-07-04T05:07:04.406Z,100486.26
2018-07-04T05:08:19.170Z,100491.02
2018-07-04T05:09:33.947Z,100481.28
2018-07-04T05:10:48.552Z,100486.26
2018-07-04T05:12:03.419Z,100484.28
2018-07-04T05:13:18.061Z,100482.89
2018-07-04T05:14:32.862Z,100488.23
2018-07-04T05:15:47.689Z,100490.22
2018-07-04T05:17:02.425Z,100485.45
2018-07-04T05:18:17.249Z,100487.44
2018-07-04T05:19:32.038Z,100489.04
2018-07-04T05:20:51.508Z,100489.62
2018-07-04T05:22:07.208Z,100479.89
2018-07-04T05:23:22.014Z,100487.06
2018-07-04T05:24:36.825Z,100485.67
2018-07-04T05:25:51.566Z,100475.93
2018-07-04T05:27:06.180Z,100480.11
2018-07-04T05:28:20.965Z,100479.30
2018-07-04T05:29:35.526Z,100484.28
2018-07-04T05:30:50.270Z,100479.89
2018-07-04T05:32:04.948Z,100480.11
2018-07-04T05:33:19.593Z,100478.71
2018-07-04T05:34:34.310Z,100477.11
2018-07-04T05:35:49.195Z,100477.11
2018-07-04T05:37:03.688Z,100471.13
2018-07-04T05:38:18.430Z,100467.75
2018-07-04T05:39:32.984Z,100470.75
2018-07-04T05:40:47.808Z,100466.58
2018-07-04T05:42:02.617Z,100468.39
2018-07-04T05:43:17.478Z,100466.20
2018-07-04T05:44:32.331Z,100463.63
2018-07-04T05:45:51.467Z,100465.61
2018-07-04T05:47:06.412Z,100460.42
2018-07-04T05:48:21.156Z,100466.58
2018-07-04T05:49:35.927Z,100465.13
2018-07-04T05:50:50.598Z,100461.81
2018-07-04T05:52:05.382Z,100458.77
2018-07-04T05:53:20.152Z,100455.36
2018-07-04T05:54:34.854Z,100464.23
2018-07-04T05:55:49.694Z,100457.58
2018-07-04T05:57:04.436Z,100462.50
2018-07-04T05:58:19.142Z,100462.23
2018-07-04T05:59:33.975Z,100463.57
2018-07-04T06:00:48.651Z,100468.83
2018-07-04T06:02:03.320Z,100463.16
2018-07-04T06:03:18.043Z,100466.09
2018-07-04T06:04:32.734Z,100462.43
2018-07-04T06:05:47.333Z,100464.56
2018-07-04T06:07:02.273Z,100467.72
2018-07-04T06:08:17.120Z,100470.01
2018-07-04T06:09:31.972Z,100463.78
2018-07-04T06:10:46.815Z,100461.59
2018-07-04T06:12:01.722Z,100463.13
2018-07-04T06:13:16.413Z,100458.50
2018-07-04T06:14:31.198Z,100459.89
2018-07-04T06:15:45.854Z,100462.45
2018-07-04T06:17:00.611Z,100458.16
2018-07-04T06:18:15.460Z,100459.77
2018-07-04T06:19:30.229Z,100456.98
2018-07-04T06:20:45.190Z,100461.00
2018-07-04T06:22:00.085Z,100461.38
2018-07-04T06:23:14.736Z,100459.98
2018-07-04T06:24:29.549Z,100462.97
2018-07-04T06:25:44.262Z,100458.22
2018-07-04T06:26:59.248Z,100457.87
2018-07-04T06:28:13.794Z,100462.05
2018-07-04T06:29:28.520Z,100456.83
2018-07-04T06:30:43.270Z,100464.83
2018-07-04T06:31:58.031Z,100462.84
2018-07-04T06:33:12.796Z,100461.67
2018-07-04T06:34:27.674Z,100465.04
2018-07-04T06:35:42.433Z,100463.86
2018-07-04T06:36:57.312Z,100461.89
2018-07-04T06:37:59.561Z,100461.89
2018-07-04T06:39:01.838Z,100466.86
2018-07-04T06:40:04.100Z,100464.30
2018-07-04T06:41:06.342Z,100457.35
2018-07-04T06:42:08.584Z,100459.75
2018-07-04T06:43:10.839Z,100456.98
2018-07-04T06:44:13.084Z,100453.61
2018-07-04T06:45:15.434Z,100456.17
2018-07-04T06:46:17.705Z,100457.19
2018-07-04T06:47:19.986Z,100459.75
2018-07-04T06:48:22.247Z,100459.97
2018-07-04T06:49:24.516Z,100461.36
2018-07-04T06:50:26.790Z,100458.58
2018-07-04T06:51:29.096Z,100462.75
2018-07-04T06:52:31.495Z,100459.97
2018-07-04T06:53:33.782Z,100462.53
2018-07-04T06:54:36.110Z,100461.36
2018-07-04T06:55:38.356Z,100457.19
2018-07-04T06:56:40.637Z,100455.80
2018-07-04T06:57:42.907Z,100460.55
2018-07-04T06:58:45.142Z,100462.75
2018-07-04T06:59:47.957Z,100462.16
2018-07-04T07:00:50.208Z,100463.77
2018-07-04T07:01:52.543Z,100466.76
2018-07-04T07:03:07.120Z,100465.37
2018-07-04T07:04:21.757Z,100466.76
2018-07-04T07:05:36.427Z,100468.73
2018-07-04T07:06:51.252Z,100461.58
2018-07-04T07:08:05.900Z,100466.38
2018-07-04T07:09:20.656Z,100470.77
2018-07-04T07:10:35.337Z,100466.38
2018-07-04T07:11:50.158Z,100458.64
2018-07-04T07:13:04.933Z,100459.22
2018-07-04T07:14:19.669Z,100459.44
2018-07-04T07:15:34.709Z,100460.24
2018-07-04T07:16:49.335Z,100457.46
2018-07-04T07:18:04.417Z,100459.87
2018-07-04T07:19:19.492Z,100454.90
2018-07-04T07:20:34.185Z,100455.91
2018-07-04T07:21:48.959Z,100456.72
2018-07-04T07:23:03.786Z,100452.55
2018-07-04T07:24:18.554Z,100454.18
2018-07-04T07:25:33.550Z,100452.20
2018-07-04T07:26:48.409Z,100453.59
2018-07-04T07:28:03.069Z,100446.06
2018-07-04T07:29:17.823Z,100450.23
2018-07-04T07:30:32.519Z,100452.20
2018-07-04T07:31:47.276Z,100458.19
2018-07-04T07:33:02.024Z,100450.23
2018-07-04T07:34:16.942Z,100452.63
2018-07-04T07:35:31.472Z,100442.10
2018-07-04T07:36:46.526Z,100445.69
2018-07-04T07:38:01.596Z,100447.88
2018-07-04T07:39:16.466Z,100446.48
2018-07-04T07:40:31.115Z,100450.06
2018-07-04T07:41:45.914Z,100445.90
2018-07-04T07:43:00.545Z,100445.90
2018-07-04T07:44:15.256Z,100448.89
2018-07-04T07:45:30.058Z,100445.31
2018-07-04T07:46:45.190Z,100444.13
2018-07-04T07:47:59.852Z,100446.11
2018-07-04T07:49:14.610Z,100447.50
2018-07-04T07:50:29.383Z,100459.42
2018-07-04T07:51:44.086Z,100445.31
2018-07-04T07:52:58.868Z,100449.11
2018-07-04T07:54:13.644Z,100446.91
2018-07-04T07:55:28.173Z,100443.33
2018-07-04T07:56:42.953Z,100445.73
2018-07-04T07:57:57.612Z,100441.57
2018-07-04T07:59:12.466Z,100435.80
2018-07-04T08:00:27.240Z,100434.63
2018-07-04T08:01:42.024Z,100436.81
2018-07-04T08:02:56.817Z,100435.80
2018-07-04T08:04:11.707Z,100434.63
2018-07-04T08:05:26.402Z,100439.38
2018-07-04T08:06:41.241Z,100439.59
2018-07-04T08:07:56.362Z,100439.38
2018-07-04T08:09:11.002Z,100443.76
2018-07-04T08:10:25.775Z,100443.39
2018-07-04T08:11:40.599Z,100445.36
2018-07-04T08:12:55.327Z,100440.18
2018-07-04T08:14:10.055Z,100443.39
2018-07-04T08:15:24.664Z,100446.75
2018-07-04T08:16:39.297Z,100444.56
2018-07-04T08:17:53.947Z,100443.76
2018-07-04T08:19:08.677Z,100444.56
2018-07-04T08:20:23.550Z,100447.34
2018-07-04T08:21:38.473Z,100444.34
2018-07-04T08:22:53.322Z,100450.13
2018-07-04T08:24:08.096Z,100448.73
2018-07-04T08:25:22.973Z,100453.11
2018-07-04T08:26:37.531Z,100441.20
2018-07-04T08:27:52.272Z,100446.97
2018-07-04T08:29:06.935Z,100448.14
2018-07-04T08:30:21.792Z,100448.73
2018-07-04T08:31:36.589Z,100444.56
2018-07-04T08:32:51.219Z,100451.14
2018-07-04T08:34:06.038Z,100444.78
2018-07-04T08:35:20.664Z,100444.98
2018-07-04T08:36:35.432Z,100446.97
2018-07-04T08:37:50.196Z,100444.78
2018-07-04T08:39:05.093Z,100448.36
2018-07-04T08:40:19.972Z,100444.19
2018-07-04T08:41:34.707Z,100446.97
2018-07-04T08:42:49.404Z,100445.58
2018-07-04T08:44:04.201Z,100447.19
2018-07-04T08:45:18.786Z,100447.34
2018-07-04T08:46:33.273Z,100454.13
2018-07-04T08:47:48.126Z,100452.53
2018-07-04T08:49:02.889Z,100455.30
2018-07-04T08:50:17.663Z,100462.25
2018-07-04T08:51:32.350Z,100453.33
2018-07-04T08:52:47.133Z,100449.96
2018-07-04T08:54:01.786Z,100451.14
2018-07-04T08:55:16.520Z,100457.50
2018-07-04T08:56:31.197Z,100455.30
2018-07-04T08:57:46.073Z,100451.94
2018-07-04T08:59:00.762Z,100452.53
2018-07-04T09:00:15.768Z,100458.30
2018-07-04T09:01:30.454Z,100455.89
2018-07-04T09:02:45.779Z,100458.08
2018-07-04T09:04:00.698Z,100455.52
2018-07-04T09:05:15.390Z,100461.67
2018-07-04T09:06:30.131Z,100465.25
2018-07-04T09:07:44.896Z,100462.25
2018-07-04T09:08:59.626Z,100472.20
2018-07-04T09:10:14.430Z,100476.37
2018-07-04T09:11:29.221Z,100473.59
2018-07-04T09:12:43.892Z,100469.42
2018-07-04T09:13:58.537Z,100470.59
2018-07-04T09:15:13.112Z,100476.58
2018-07-04T09:16:27.833Z,100477.97
2018-07-04T09:17:42.627Z,100486.31
2018-07-04T09:18:57.392Z,100483.53
2018-07-04T09:20:12.160Z,100478.55
2018-07-04T09:21:26.930Z,100485.72
2018-07-04T09:22:41.823Z,100486.52
2018-07-04T09:23:56.640Z,100486.15
2018-07-04T09:25:11.407Z,100488.34
2018-07-04T09:26:26.340Z,100491.13
2018-07-04T09:27:40.971Z,100488.59
2018-07-04T09:28:55.602Z,100494.14
2018-07-04T09:30:10.332Z,100497.14
2018-07-04T09:31:25.162Z,100495.75
2018-07-04T09:32:39.926Z,100496.55
2018-07-04T09:33:54.556Z,100497.94
2018-07-04T09:35:09.444Z,100505.10
2018-07-04T09:36:24.259Z,100504.89
2018-07-04T09:37:38.911Z,100501.52
2018-07-04T09:38:53.731Z,100503.50
2018-07-04T09:40:08.528Z,100507.67
2018-07-04T09:41:23.246Z,100514.03
2018-07-04T09:42:37.988Z,100518.20
2018-07-04T09:43:53.191Z,100523.17
2018-07-04T09:45:07.924Z,100519.00
2018-07-04T09:46:22.637Z,100515.42
2018-07-04T09:47:37.431Z,100516.59
2018-07-04T09:48:52.147Z,100520.39
2018-07-04T09:50:06.862Z,100519.59
2018-07-04T09:51:21.640Z,100515.42
2018-07-04T09:52:36.361Z,100518.20
2018-07-04T09:53:51.126Z,100513.23
2018-07-04T09:55:05.980Z,100514.03
2018-07-04T09:56:20.671Z,100511.84
2018-07-04T09:57:35.494Z,100519.00
2018-07-04T09:58:50.304Z,100521.20
2018-07-04T10:00:05.145Z,100512.05
2018-07-04T10:01:23.302Z,100511.47
2018-07-04T10:02:37.926Z,100515.27
2018-07-04T10:03:52.751Z,100513.28
2018-07-04T10:05:07.587Z,100514.67
2018-07-04T10:06:22.084Z,100513.28
2018-07-04T10:07:36.653Z,100517.45
2018-07-04T10:08:51.312Z,100516.66
2018-07-04T10:10:06.150Z,100520.02
2018-07-04T10:11:20.990Z,100519.22
2018-07-04T10:12:35.719Z,100513.45
2018-07-04T10:13:50.489Z,100517.02
2018-07-04T10:15:05.253Z,100520.23
2018-07-04T10:16:19.917Z,100519.22
2018-07-04T10:17:34.721Z,100521.41
2018-07-04T10:18:49.391Z,100519.22
2018-07-04T10:20:04.022Z,100517.24
2018-07-04T10:21:18.828Z,100514.03
2018-07-04T10:22:33.831Z,100520.98
2018-07-04T10:23:48.674Z,100519.59
2018-07-04T10:25:03.311Z,100512.05
2018-07-04T10:26:18.207Z,100509.65
2018-07-04T10:27:33.004Z,100503.88
2018-07-04T10:28:47.621Z,100502.48
2018-07-04T10:30:02.409Z,100502.23
2018-07-04T10:31:17.114Z,100499.25
2018-07-04T10:32:31.972Z,100495.88
2018-07-04T10:33:46.744Z,100496.84
2018-07-04T10:35:01.443Z,100500.20
2018-07-04T10:36:16.274Z,100494.44
2018-07-04T10:37:31.071Z,100496.78
2018-07-04T10:38:46.094Z,100495.77
2018-07-04T10:40:00.855Z,100491.17
2018-07-04T10:41:15.748Z,100493.73
2018-07-04T10:42:30.603Z,100488.55
2018-07-04T10:43:45.504Z,100488.76
2018-07-04T10:45:00.199Z,100488.98
2018-07-04T10:46:14.948Z,100488.60
2018-07-04T10:47:29.759Z,100491.37
2018-07-04T10:48:44.628Z,100490.42
2018-07-04T10:49:59.380Z,100489.03
2018-07-04T10:51:14.053Z,100490.05
2018-07-04T10:52:28.818Z,100482.52
2018-07-04T10:53:43.783Z,100480.75
2018-07-04T10:54:58.529Z,100482.94
2018-07-04T10:56:13.393Z,100489.30
2018-07-04T10:57:28.076Z,100485.94
2018-07-04T10:58:42.781Z,100489.52
2018-07-04T10:59:57.564Z,100482.78
2018-07-04T11:01:12.342Z,100487.41
2018-07-04T11:02:26.979Z,100485.06
2018-07-04T11:03:41.529Z,100483.67
2018-07-04T11:04:56.249Z,100484.47
2018-07-04T11:06:10.944Z,100479.71
2018-07-04T11:07:25.849Z,100479.92
2018-07-04T11:08:40.446Z,100473.19
2018-07-04T11:09:55.212Z,100467.05
2018-07-04T11:11:09.797Z,100458.70
2018-07-04T11:12:24.652Z,100456.94
2018-07-04T11:13:39.442Z,100454.37
2018-07-04T11:14:54.749Z,100449.66
2018-07-04T11:16:09.618Z,100451.27
2018-07-04T11:17:24.286Z,100444.91
2018-07-04T11:18:39.207Z,100443.76
2018-07-04T11:19:54.047Z,100444.56
2018-07-04T11:21:08.842Z,100441.78
2018-07-04T11:22:23.612Z,100440.02
2018-07-04T11:23:38.605Z,100440.81
2018-07-04T11:24:53.420Z,100433.86
2018-07-04T11:26:08.184Z,100431.89
2018-07-04T11:27:22.978Z,100436.27
2018-07-04T11:28:37.881Z,100427.92
2018-07-04T11:29:52.556Z,100430.92
2018-07-04T11:31:07.380Z,100433.11
2018-07-04T11:32:22.156Z,100431.13
2018-07-04T11:33:36.821Z,100428.56
2018-07-04T11:34:51.597Z,100433.53
2018-07-04T11:36:06.265Z,100437.92
2018-07-04T11:37:21.040Z,100439.31
2018-07-04T11:38:35.718Z,100440.70
2018-07-04T11:39:50.525Z,100433.96
2018-07-04T11:41:05.495Z,100446.69
2018-07-04T11:42:20.368Z,100443.53
2018-07-04T11:43:36.650Z,100447.91
2018-07-04T11:44:51.514Z,100458.11
2018-07-04T11:45:58.931Z,100453.34
2018-07-04T11:47:01.200Z,100451.61
2018-07-04T11:48:03.519Z,100456.79
2018-07-04T11:49:05.780Z,100462.35
2018-07-04T11:50:08.050Z,100464.55
2018-07-04T11:51:11.575Z,100462.19
2018-07-04T11:52:13.827Z,100473.53
2018-07-04T11:53:16.157Z,100472.73
2018-07-04T11:54:18.473Z,100474.33
2018-07-04T11:55:20.729Z,100470.37
2018-07-04T11:56:23.103Z,100472.56
2018-07-04T11:57:25.351Z,100478.92
2018-07-04T11:58:27.678Z,100479.14
2018-07-04T11:59:29.936Z,100479.14
2018-07-04T12:00:32.643Z,100477.53
2018-07-04T12:01:34.943Z,100478.34
2018-07-04T12:02:37.209Z,100476.36
2018-07-04T12:03:51.844Z,100472.19
2018-07-04T12:05:06.644Z,100469.41
2018-07-04T12:06:21.277Z,100470.80
2018-07-04T12:07:24.402Z,100456.89
2018-07-04T12:08:26.724Z,100461.06
2018-07-04T12:09:29.137Z,100459.08
2018-07-04T12:10:31.382Z,100452.92
2018-07-04T12:11:33.630Z,100454.91
2018-07-04T12:12:36.284Z,100457.69
2018-07-04T12:13:38.563Z,100461.86
2018-07-04T12:14:40.818Z,100455.50
2018-07-04T12:15:43.175Z,100458.28
2018-07-04T12:16:45.446Z,100460.26
2018-07-04T12:17:47.705Z,100467.80
2018-07-04T12:18:50.496Z,100466.20
2018-07-04T12:19:52.824Z,100468.60
2018-07-04T12:20:55.088Z,100462.61
2018-07-04T12:21:57.381Z,100462.03
2018-07-04T12:22:59.662Z,100463.42
2018-07-04T12:24:01.899Z,100468.77
2018-07-04T12:25:04.131Z,100461.98
2018-07-04T12:26:06.412Z,100465.98
2018-07-04T12:27:08.701Z,100468.17
2018-07-04T12:28:10.992Z,100472.94
2018-07-04T12:29:13.236Z,100471.55
2018-07-04T12:30:15.528Z,100472.73
2018-07-04T12:31:17.784Z,100474.92
2018-07-04T12:32:20.072Z,100474.12
2018-07-04T12:33:22.337Z,100479.09
2018-07-04T12:34:25.160Z,100474.70
2018-07-04T12:35:27.935Z,100474.70
2018-07-04T12:36:30.350Z,100475.51
2018-07-04T12:37:33.234Z,100473.91
2018-07-04T12:38:35.825Z,100474.12
2018-07-04T12:39:38.363Z,100478.88
2018-07-04T12:40:42.263Z,100472.73
2018-07-04T12:41:44.643Z,100474.92
2018-07-04T12:42:47.076Z,100469.14
2018-07-04T12:43:50.542Z,100473.31
2018-07-04T12:44:52.754Z,100478.88
2018-07-04T12:45:55.636Z,100471.13
2018-07-04T12:46:57.949Z,100473.91
2018-07-04T12:48:00.384Z,100473.91
2018-07-04T12:49:04.509Z,100477.48
2018-07-04T12:50:20.408Z,100471.71
2018-07-04T12:51:23.170Z,100480.27
2018-07-04T12:52:27.034Z,100470.53
2018-07-04T12:53:29.446Z,100468.93
2018-07-04T12:54:37.207Z,100468.93
2018-07-04T12:55:52.033Z,100469.73
2018-07-04T12:57:07.119Z,100466.73
2018-07-04T12:58:21.938Z,100461.98
2018-07-04T12:59:36.909Z,100461.98
2018-07-04T13:00:51.707Z,100460.00
2018-07-04T13:02:06.432Z,100458.39
2018-07-04T13:03:21.693Z,100458.39
2018-07-04T13:04:36.262Z,100462.56
2018-07-04T13:05:51.045Z,100462.35
2018-07-04T13:07:06.011Z,100460.59
2018-07-04T13:08:20.692Z,100459.78
2018-07-04T13:09:35.543Z,100454.81
2018-07-04T13:10:50.199Z,100452.62
2018-07-04T13:12:05.027Z,100448.45
2018-07-04T13:13:19.658Z,100457.00
2018-07-04T13:14:34.664Z,100452.03
2018-07-04T13:15:49.685Z,100450.05
2018-07-04T13:17:04.540Z,100444.48
2018-07-04T13:18:19.351Z,100445.67
2018-07-04T13:19:34.497Z,100449.03
2018-07-04T13:20:49.149Z,100447.06
2018-07-04T13:22:04.058Z,100442.88
2018-07-04T13:23:18.889Z,100445.67
2018-07-04T13:24:33.684Z,100444.28
2018-07-04T13:25:48.521Z,100440.31
2018-07-04T13:27:03.275Z,100445.67
2018-07-04T13:28:18.037Z,100444.48
2018-07-04T13:29:32.760Z,100445.29
2018-07-04T13:30:47.500Z,100441.70
2018-07-04T13:32:02.372Z,100444.48
2018-07-04T13:33:17.161Z,100448.07
2018-07-04T13:34:31.960Z,100450.27
2018-07-04T13:35:46.773Z,100438.34
2018-07-04T13:37:01.495Z,100449.09
2018-07-04T13:38:16.238Z,100449.09
2018-07-04T13:39:30.904Z,100451.87
2018-07-04T13:40:45.602Z,100450.69
2018-07-04T13:42:00.390Z,100448.12
2018-07-04T13:43:15.264Z,100446.52
2018-07-04T13:44:30.132Z,100448.70
2018-07-04T13:45:44.846Z,100452.29
2018-07-04T13:46:59.687Z,100451.11
2018-07-04T13:48:14.362Z,100454.48
2018-07-04T13:49:29.212Z,100449.72
2018-07-04T13:50:43.836Z,100455.88
2018-07-04T13:51:58.673Z,100453.89
2018-07-04T13:53:13.290Z,100451.11
2018-07-04T13:54:27.962Z,100455.28
2018-07-04T13:55:42.591Z,100454.69